createdAt,value
2022-09-22T00:01:20.802Z,3.78
2022-09-22T00:03:52.554Z,3.92
2022-09-22T00:06:22.610Z,3.40
2022-09-22T00:08:56.468Z,3.00
2022-09-22T00:11:28.988Z,4.13
2022-09-22T00:14:01.847Z,3.20
2022-09-22T00:16:39.178Z,3.53
2022-09-22T00:19:15.449Z,3.13
2022-09-22T00:21:43.599Z,3.83
2022-09-22T00:24:10.971Z,2.97
2022-09-22T00:26:38.982Z,3.30
2022-09-22T00:29:09.476Z,4.13
2022-09-22T00:31:41.649Z,3.30
2022-09-22T00:34:14.407Z,3.20
2022-09-22T00:36:41.892Z,3.15
2022-09-22T00:39:09.538Z,3.58
2022-09-22T00:41:41.901Z,3.38
2022-09-22T00:46:50.658Z,3.17
2022-09-22T00:49:20.819Z,3.80
2022-09-22T00:51:48.419Z,4.47
2022-09-22T00:54:19.068Z,4.22
2022-09-22T00:57:15.798Z,4.57
2022-09-22T00:59:46.223Z,4.60
2022-09-22T01:02:13.905Z,3.75
2022-09-22T01:04:42.707Z,3.63
2022-09-22T01:07:11.259Z,4.00
2022-09-22T01:09:38.810Z,4.30
2022-09-22T01:12:06.292Z,3.40
2022-09-22T01:14:46.628Z,3.95
2022-09-22T01:17:32.407Z,3.75
2022-09-22T01:20:47.168Z,4.10
2022-09-22T01:23:18.620Z,4.13
2022-09-22T01:26:03.107Z,3.40
2022-09-22T01:28:54.796Z,2.97
2022-09-22T01:32:03.437Z,3.50
2022-09-22T01:34:36.314Z,3.47
2022-09-22T01:37:20.839Z,3.85
2022-09-22T01:40:12.165Z,3.70
2022-09-22T01:42:53.910Z,3.90
2022-09-22T01:45:25.048Z,4.20
2022-09-22T01:48:02.335Z,3.72
2022-09-22T01:50:37.777Z,3.45
2022-09-22T01:53:09.556Z,4.65
2022-09-22T01:55:45.116Z,3.35
2022-09-22T01:58:28.423Z,3.40
2022-09-22T02:01:13.639Z,3.95
2022-09-22T02:03:57.709Z,3.13
2022-09-22T02:06:55.996Z,3.35
2022-09-22T02:09:25.990Z,3.67
2022-09-22T02:11:53.241Z,3.50
2022-09-22T02:14:20.385Z,3.80
2022-09-22T02:16:48.145Z,3.70
2022-09-22T02:19:30.409Z,3.60
2022-09-22T02:21:58.323Z,4.20
2022-09-22T02:24:41.852Z,3.97
2022-09-22T02:27:20.605Z,3.40
2022-09-22T02:29:51.900Z,3.78
2022-09-22T02:32:20.700Z,3.50
2022-09-22T02:34:48.369Z,4.60
2022-09-22T02:37:25.845Z,3.63
2022-09-22T02:40:08.431Z,4.15
2022-09-22T02:42:43.728Z,4.13
2022-09-22T02:45:32.259Z,3.83
2022-09-22T02:48:01.987Z,3.38
2022-09-22T02:50:30.617Z,3.83
2022-09-22T02:53:11.085Z,3.22
2022-09-22T02:55:38.444Z,3.30
2022-09-22T02:58:05.509Z,3.88
2022-09-22T03:00:33.155Z,3.72
2022-09-22T03:03:00.654Z,4.35
2022-09-22T03:05:27.775Z,3.38
2022-09-22T03:07:54.911Z,3.35
2022-09-22T03:10:22.077Z,3.70
2022-09-22T03:13:14.541Z,3.85
2022-09-22T03:15:36.589Z,3.70
2022-09-22T03:18:04.212Z,3.70
2022-09-22T03:20:31.898Z,3.88
2022-09-22T03:22:59.014Z,3.88
2022-09-22T03:25:26.418Z,3.28
2022-09-22T03:27:53.560Z,4.53
2022-09-22T03:30:20.720Z,3.80
2022-09-22T03:32:47.890Z,3.30
2022-09-22T03:35:15.083Z,4.13
2022-09-22T03:37:42.223Z,4.53
2022-09-22T03:40:09.700Z,4.05
2022-09-22T03:42:36.993Z,3.78
2022-09-22T03:45:05.364Z,4.05
2022-09-22T03:47:32.731Z,3.45
2022-09-22T03:49:59.819Z,4.07
2022-09-22T03:52:27.415Z,4.40
2022-09-22T03:54:54.559Z,3.33
2022-09-22T03:57:21.825Z,3.75
2022-09-22T03:59:49.134Z,3.35
2022-09-22T04:02:16.381Z,4.20
2022-09-22T04:04:43.643Z,4.80
2022-09-22T04:07:10.718Z,4.97
2022-09-22T04:09:37.813Z,4.70
2022-09-22T04:12:05.146Z,3.63
2022-09-22T04:14:32.313Z,4.82
2022-09-22T04:16:59.440Z,4.82
2022-09-22T04:19:26.774Z,4.30
2022-09-22T04:21:57.141Z,4.35
2022-09-22T04:24:24.600Z,4.40
2022-09-22T04:27:18.165Z,4.43
2022-09-22T04:29:39.187Z,5.38
2022-09-22T04:32:06.381Z,4.75
2022-09-22T04:34:33.471Z,5.20
2022-09-22T04:37:00.867Z,5.25
2022-09-22T04:39:30.890Z,5.15
2022-09-22T04:41:58.007Z,6.18
2022-09-22T04:44:25.124Z,6.05
2022-09-22T04:46:52.246Z,6.00
2022-09-22T04:49:19.562Z,5.07
2022-09-22T04:51:46.734Z,5.43
2022-09-22T04:54:14.928Z,4.43
2022-09-22T04:56:42.930Z,4.32
2022-09-22T04:59:10.208Z,5.60
2022-09-22T05:01:37.481Z,4.50
2022-09-22T05:04:04.867Z,5.03
2022-09-22T05:06:31.993Z,4.75
2022-09-22T05:08:59.168Z,6.40
2022-09-22T05:11:26.340Z,4.55
2022-09-22T05:13:53.443Z,5.50
2022-09-22T05:16:20.601Z,4.88
2022-09-22T05:18:49.602Z,4.65
2022-09-22T05:21:20.536Z,4.85
2022-09-22T05:23:47.749Z,5.03
2022-09-22T05:26:14.885Z,5.90
2022-09-22T05:28:42.027Z,5.65
2022-09-22T05:31:09.208Z,5.22
2022-09-22T05:33:36.421Z,4.80
2022-09-22T05:36:04.059Z,4.35
2022-09-22T05:38:31.233Z,4.65
2022-09-22T05:40:58.427Z,4.80
2022-09-22T05:43:25.668Z,4.90
2022-09-22T05:45:52.939Z,4.85
2022-09-22T05:48:20.035Z,4.47
2022-09-22T05:50:47.292Z,4.05
2022-09-22T05:53:14.944Z,5.30
2022-09-22T05:55:42.144Z,5.07
2022-09-22T05:58:12.689Z,4.93
2022-09-22T06:00:40.932Z,4.80
2022-09-22T06:03:08.610Z,4.28
2022-09-22T06:05:38.897Z,5.32
2022-09-22T06:08:07.874Z,5.10
2022-09-22T06:10:36.873Z,5.65
2022-09-22T06:13:05.789Z,5.30
2022-09-22T06:15:36.408Z,5.03
2022-09-22T06:18:13.081Z,4.70
2022-09-22T06:20:43.136Z,4.43
2022-09-22T06:23:12.795Z,3.92
2022-09-22T06:25:40.248Z,4.40
2022-09-22T06:28:10.058Z,4.50
2022-09-22T06:30:40.323Z,3.78
2022-09-22T06:33:08.889Z,4.40
2022-09-22T06:35:38.960Z,3.97
2022-09-22T06:38:07.610Z,4.95
2022-09-22T06:40:38.413Z,4.45
2022-09-22T06:43:12.841Z,5.13
2022-09-22T06:45:41.092Z,4.30
2022-09-22T06:48:10.687Z,4.35
2022-09-22T06:50:40.901Z,4.10
2022-09-22T06:53:11.709Z,3.55
2022-09-22T06:55:41.643Z,4.45
2022-09-22T06:58:09.094Z,4.18
2022-09-22T07:00:36.408Z,4.53
2022-09-22T07:03:19.615Z,3.55
2022-09-22T07:05:55.250Z,3.88
2022-09-22T07:08:24.346Z,3.45
2022-09-22T07:11:10.178Z,3.05
2022-09-22T07:13:40.069Z,3.40
2022-09-22T07:16:16.440Z,3.53
2022-09-22T07:18:46.409Z,3.72
2022-09-22T07:21:22.792Z,3.72
2022-09-22T07:23:51.686Z,3.60
2022-09-22T07:26:28.985Z,4.00
2022-09-22T07:28:59.477Z,3.67
2022-09-22T07:31:29.479Z,2.80
2022-09-22T07:34:00.441Z,3.47
2022-09-22T07:36:30.120Z,3.83
2022-09-22T07:38:58.654Z,3.28
2022-09-22T07:41:29.998Z,3.40
2022-09-22T07:44:21.915Z,2.83
2022-09-22T07:46:49.380Z,3.00
2022-09-22T07:49:19.439Z,3.53
2022-09-22T07:51:46.696Z,3.25
2022-09-22T07:54:13.814Z,3.30
2022-09-22T07:56:43.427Z,3.28
2022-09-22T07:59:13.099Z,2.60
2022-09-22T08:01:44.200Z,2.63
2022-09-22T08:04:16.667Z,3.03
2022-09-22T08:06:45.217Z,2.42
2022-09-22T08:09:13.382Z,2.67
2022-09-22T08:11:44.747Z,2.97
2022-09-22T08:14:12.821Z,3.10
2022-09-22T08:16:41.088Z,2.80
2022-09-22T08:19:12.613Z,2.55
2022-09-22T08:21:48.387Z,3.28
2022-09-22T08:24:21.449Z,2.05
2022-09-22T08:26:50.617Z,2.70
2022-09-22T08:29:17.778Z,2.50
2022-09-22T08:31:47.851Z,2.42
2022-09-22T08:34:18.832Z,2.30
2022-09-22T08:36:48.841Z,2.80
2022-09-22T08:39:17.860Z,2.45
2022-09-22T08:41:58.046Z,2.65
2022-09-22T08:44:30.435Z,2.42
2022-09-22T08:50:03.083Z,2.90
2022-09-22T08:52:50.756Z,2.05
2022-09-22T08:55:27.780Z,1.95
2022-09-22T08:58:11.501Z,2.55
2022-09-22T09:00:47.225Z,3.10
2022-09-22T09:03:44.464Z,2.25
2022-09-22T09:06:15.714Z,2.00
2022-09-22T09:09:04.029Z,2.65
2022-09-22T09:11:59.751Z,2.40
2022-09-22T09:14:46.798Z,2.42
2022-09-22T09:17:26.153Z,2.13
2022-09-22T09:20:14.337Z,2.30
2022-09-22T09:22:56.134Z,2.45
2022-09-22T09:25:37.543Z,2.25
2022-09-22T09:28:07.360Z,1.65
2022-09-22T09:30:47.011Z,1.50
2022-09-22T09:33:46.215Z,1.45
2022-09-22T09:36:17.625Z,1.35
2022-09-22T09:38:55.036Z,2.70
2022-09-22T09:41:32.960Z,1.63
2022-09-22T09:44:01.341Z,1.80
2022-09-22T09:46:37.297Z,1.90
2022-09-22T09:49:11.811Z,1.73
2022-09-22T09:51:43.403Z,1.40
2022-09-22T09:54:16.982Z,1.40
2022-09-22T09:57:03.727Z,1.55
2022-09-22T09:59:49.918Z,1.30
2022-09-22T10:02:21.400Z,1.23
2022-09-22T10:04:56.108Z,1.40
2022-09-22T10:07:44.936Z,1.20
2022-09-22T10:10:34.525Z,1.10
2022-09-22T10:13:04.797Z,1.00
2022-09-22T10:15:37.769Z,1.40
2022-09-22T10:18:32.357Z,1.55
2022-09-22T10:21:21.602Z,1.60
2022-09-22T10:23:56.562Z,1.45
2022-09-22T10:26:32.413Z,0.98
2022-09-22T10:29:09.553Z,1.40
2022-09-22T10:31:40.019Z,1.60
2022-09-22T10:34:31.544Z,1.77
2022-09-22T10:37:04.052Z,1.10
2022-09-22T10:39:44.988Z,1.85
2022-09-22T10:42:23.316Z,1.98
2022-09-22T10:44:52.415Z,1.75
2022-09-22T10:47:32.345Z,1.65
2022-09-22T10:50:25.492Z,1.48
2022-09-22T10:53:11.072Z,1.50
2022-09-22T10:55:55.603Z,1.83
2022-09-22T10:58:49.591Z,1.70
2022-09-22T11:02:01.338Z,1.95
2022-09-22T11:04:40.639Z,1.95
2022-09-22T11:07:33.583Z,2.45
2022-09-22T11:10:54.066Z,2.08
2022-09-22T11:13:48.866Z,1.83
2022-09-22T11:16:38.658Z,2.72
2022-09-22T11:19:37.265Z,1.60
2022-09-22T11:22:23.902Z,2.40
2022-09-22T11:24:56.703Z,1.85
2022-09-22T11:27:36.494Z,1.58
2022-09-22T11:30:22.154Z,1.50
2022-09-22T11:33:17.007Z,1.80
2022-09-22T11:35:59.445Z,1.65
2022-09-22T11:38:59.859Z,1.20
2022-09-22T11:42:15.403Z,1.23
2022-09-22T11:45:05.418Z,1.38
2022-09-22T11:47:48.544Z,1.45
2022-09-22T11:50:31.916Z,1.90
2022-09-22T11:53:19.488Z,1.30
2022-09-22T11:55:52.806Z,1.67
2022-09-22T11:58:23.307Z,1.38
2022-09-22T12:01:03.373Z,1.60
2022-09-22T12:03:40.303Z,1.98
2022-09-22T12:06:16.461Z,1.92
2022-09-22T12:09:13.472Z,1.33
2022-09-22T12:11:42.097Z,1.42
2022-09-22T12:14:14.597Z,2.22
2022-09-22T12:16:51.221Z,1.52
2022-09-22T12:19:33.158Z,1.23
2022-09-22T12:22:22.647Z,1.52
2022-09-22T12:24:49.878Z,1.67
2022-09-22T12:27:23.189Z,1.77
2022-09-22T12:30:11.380Z,2.20
2022-09-22T12:32:43.976Z,1.60
2022-09-22T12:35:31.032Z,1.52
2022-09-22T12:38:02.397Z,2.22
2022-09-22T12:40:37.397Z,1.58
2022-09-22T12:43:06.027Z,1.55
2022-09-22T12:45:38.196Z,1.50
2022-09-22T12:48:23.022Z,1.70
2022-09-22T12:50:52.246Z,1.77
2022-09-22T12:53:22.400Z,1.88
2022-09-22T12:55:54.917Z,1.80
2022-09-22T12:58:22.440Z,1.60
2022-09-22T13:00:52.273Z,1.50
2022-09-22T13:03:49.690Z,2.20
2022-09-22T13:06:22.668Z,1.23
2022-09-22T13:08:55.569Z,1.98
2022-09-22T13:12:01.710Z,1.35
2022-09-22T13:15:13.950Z,1.42
2022-09-22T13:17:44.102Z,1.73
2022-09-22T13:20:21.759Z,1.30
2022-09-22T13:22:49.398Z,1.95
2022-09-22T13:25:22.095Z,1.45
2022-09-22T13:30:34.237Z,1.90
2022-09-22T13:33:01.479Z,1.20
2022-09-22T13:35:33.372Z,1.85
2022-09-22T13:38:00.864Z,1.42
2022-09-22T13:40:31.877Z,1.92
2022-09-22T13:43:03.245Z,2.13
2022-09-22T13:45:30.531Z,2.00
2022-09-22T13:48:14.497Z,1.60
2022-09-22T13:50:54.690Z,1.50
2022-09-22T13:53:22.522Z,2.28
2022-09-22T13:55:51.647Z,1.63
2022-09-22T13:58:30.416Z,1.60
2022-09-22T14:01:15.294Z,1.60
2022-09-22T14:03:42.784Z,1.40
2022-09-22T14:06:14.794Z,1.83
2022-09-22T14:08:43.980Z,1.33
2022-09-22T14:11:20.946Z,1.40
2022-09-22T14:13:57.916Z,1.65
2022-09-22T14:16:46.473Z,1.30
2022-09-22T14:19:34.859Z,1.33
2022-09-22T14:22:13.713Z,1.38
2022-09-22T14:24:46.048Z,2.10
2022-09-22T14:29:50.247Z,1.83
2022-09-22T14:32:41.135Z,1.40
2022-09-22T14:35:36.154Z,1.42
2022-09-22T14:38:15.554Z,1.60
2022-09-22T14:43:31.308Z,1.42
2022-09-22T14:46:08.755Z,1.30
2022-09-22T14:48:36.933Z,1.38
2022-09-22T14:51:07.509Z,1.60
2022-09-22T14:53:47.116Z,2.03
2022-09-22T14:56:27.378Z,1.42
2022-09-22T14:59:00.273Z,1.90
2022-09-22T15:01:50.609Z,1.60
2022-09-22T15:04:25.002Z,1.52
2022-09-22T15:06:59.045Z,1.55
2022-09-22T15:09:37.045Z,1.30
2022-09-22T15:12:05.471Z,1.10
2022-09-22T15:14:36.946Z,1.40
2022-09-22T15:17:23.894Z,1.23
2022-09-22T15:19:53.460Z,1.30
2022-09-22T15:22:20.631Z,1.75
2022-09-22T15:24:49.683Z,1.45
2022-09-22T15:27:17.868Z,0.98
2022-09-22T15:29:45.736Z,1.55
2022-09-22T15:32:13.258Z,1.40
2022-09-22T15:34:44.684Z,1.48
2022-09-22T15:37:22.451Z,1.40
2022-09-22T15:39:49.551Z,1.17
2022-09-22T15:42:16.894Z,2.33
2022-09-22T15:44:43.988Z,1.48
2022-09-22T15:47:16.706Z,1.17
2022-09-22T15:49:45.172Z,1.30
2022-09-22T15:52:12.390Z,1.33
2022-09-22T15:54:39.522Z,1.63
2022-09-22T15:57:06.757Z,1.75
2022-09-22T15:59:35.168Z,1.73
2022-09-22T16:02:02.803Z,1.75
2022-09-22T16:04:32.451Z,1.55
2022-09-22T16:07:04.735Z,2.58
2022-09-22T16:11:59.696Z,1.60
2022-09-22T16:14:26.811Z,2.60
2022-09-22T16:16:53.970Z,1.73
2022-09-22T16:19:21.106Z,2.05
2022-09-22T16:21:54.432Z,2.13
2022-09-22T16:24:22.794Z,1.67
2022-09-22T16:26:51.877Z,2.15
2022-09-22T16:29:19.102Z,1.88
2022-09-22T16:31:46.413Z,1.98
2022-09-22T16:34:13.589Z,1.77
2022-09-22T16:36:41.870Z,1.27
2022-09-22T16:39:09.254Z,1.42
2022-09-22T16:41:36.866Z,2.00
2022-09-22T16:44:05.497Z,1.83
2022-09-22T16:46:35.703Z,1.80
2022-09-22T16:49:05.815Z,1.20
2022-09-22T16:51:36.411Z,2.33
2022-09-22T16:54:05.647Z,1.20
2022-09-22T16:56:35.559Z,1.33
2022-09-22T16:59:03.153Z,1.60
2022-09-22T17:01:32.673Z,1.38
2022-09-22T17:03:59.904Z,1.30
2022-09-22T17:06:27.152Z,1.30
2022-09-22T17:08:57.089Z,1.30
2022-09-22T17:11:29.860Z,1.00
2022-09-22T17:14:03.006Z,1.30
2022-09-22T17:16:33.722Z,1.55
2022-09-22T17:19:03.835Z,1.15
2022-09-22T17:21:36.603Z,1.27
2022-09-22T17:24:05.833Z,1.10
2022-09-22T17:26:56.472Z,1.25
2022-09-22T17:29:29.945Z,1.33
2022-09-22T17:32:00.112Z,1.38
2022-09-22T17:34:32.956Z,1.30
2022-09-22T17:37:00.503Z,0.90
2022-09-22T17:39:29.285Z,1.60
2022-09-22T17:41:56.758Z,1.33
2022-09-22T17:44:26.679Z,1.38
2022-09-22T17:47:12.632Z,1.23
2022-09-22T17:50:00.257Z,1.50
2022-09-22T17:52:33.611Z,1.60
2022-09-22T17:55:12.714Z,1.52
2022-09-22T17:57:45.033Z,1.98
2022-09-22T18:02:45.183Z,1.80
2022-09-22T18:05:15.574Z,1.88
2022-09-22T18:07:43.091Z,1.58
2022-09-22T18:10:13.315Z,1.48
2022-09-22T18:12:44.658Z,1.52
2022-09-22T18:15:32.121Z,1.40
2022-09-22T18:17:59.387Z,1.48
2022-09-22T18:20:27.647Z,1.25
2022-09-22T18:22:57.774Z,1.20
2022-09-22T18:25:25.519Z,1.20
2022-09-22T18:27:53.657Z,1.55
2022-09-22T18:30:20.913Z,1.20
2022-09-22T18:32:48.998Z,1.40
2022-09-22T18:35:16.809Z,1.10
2022-09-22T18:37:44.069Z,1.42
2022-09-22T18:40:12.663Z,1.55
2022-09-22T18:42:42.767Z,1.58
2022-09-22T18:45:11.274Z,2.30
2022-09-22T18:47:41.915Z,1.90
2022-09-22T18:50:10.159Z,1.67
2022-09-22T18:52:38.267Z,1.80
2022-09-22T18:55:09.448Z,1.38
2022-09-22T18:57:36.640Z,2.10
2022-09-22T19:00:05.235Z,1.42
2022-09-22T19:02:32.634Z,2.45
2022-09-22T19:04:59.842Z,1.90
2022-09-22T19:07:42.398Z,1.55
2022-09-22T19:10:12.734Z,1.70
2022-09-22T19:12:40.239Z,1.50
2022-09-22T19:15:13.884Z,1.73
2022-09-22T19:17:44.235Z,3.15
2022-09-22T19:20:17.387Z,3.08
2022-09-22T19:22:45.413Z,4.25
2022-09-22T19:25:12.789Z,3.13
2022-09-22T19:27:40.129Z,2.42
2022-09-22T19:30:09.730Z,2.50
2022-09-22T19:32:36.985Z,2.10
2022-09-22T19:35:05.184Z,1.98
2022-09-22T19:37:32.368Z,1.70
2022-09-22T19:39:59.623Z,2.00
2022-09-22T19:42:28.490Z,2.38
2022-09-22T19:44:55.867Z,2.63
2022-09-22T19:47:23.869Z,3.08
2022-09-22T19:49:51.081Z,2.35
2022-09-22T19:52:18.380Z,2.50
2022-09-22T19:54:45.612Z,2.35
2022-09-22T19:57:13.322Z,2.47
2022-09-22T19:59:40.763Z,3.13
2022-09-22T20:02:15.366Z,2.40
2022-09-22T20:04:42.635Z,2.42
2022-09-22T20:07:10.962Z,2.95
2022-09-22T20:09:38.564Z,2.08
2022-09-22T20:12:06.620Z,2.85
2022-09-22T20:14:34.597Z,2.90
2022-09-22T20:17:05.662Z,2.38
2022-09-22T20:19:35.823Z,1.83
2022-09-22T20:22:18.253Z,3.97
2022-09-22T20:24:54.218Z,3.28
2022-09-22T20:27:31.608Z,2.60
2022-09-22T20:30:01.177Z,2.67
2022-09-22T20:32:34.723Z,2.40
2022-09-22T20:35:01.892Z,2.10
2022-09-22T20:37:31.946Z,2.70
2022-09-22T20:39:59.036Z,2.80
2022-09-22T20:42:26.482Z,3.55
2022-09-22T20:44:55.088Z,3.10
2022-09-22T20:47:25.353Z,3.22
2022-09-22T20:49:52.637Z,4.57
2022-09-22T20:52:21.059Z,2.85
2022-09-22T20:54:48.443Z,2.92
2022-09-22T20:57:16.199Z,3.15
2022-09-22T20:59:45.746Z,2.92
2022-09-22T21:02:14.827Z,2.47
2022-09-22T21:04:42.574Z,2.30
2022-09-22T21:07:11.645Z,2.42
2022-09-22T21:09:57.459Z,2.60
2022-09-22T21:12:30.984Z,2.97
2022-09-22T21:14:59.622Z,2.70
2022-09-22T21:17:27.901Z,2.50
2022-09-22T21:19:57.677Z,2.85
2022-09-22T21:22:28.149Z,3.25
2022-09-22T21:24:56.433Z,3.88
2022-09-22T21:27:25.221Z,3.47
2022-09-22T21:29:53.229Z,3.50
2022-09-22T21:32:20.592Z,3.60
2022-09-22T21:34:47.845Z,3.05
2022-09-22T21:37:15.056Z,4.47
2022-09-22T21:39:42.208Z,4.50
2022-09-22T21:42:09.397Z,5.22
2022-09-22T21:44:36.554Z,4.75
2022-09-22T21:47:03.703Z,4.32
2022-09-22T21:49:30.945Z,3.40
2022-09-22T21:51:58.131Z,3.38
2022-09-22T21:54:25.444Z,3.38
2022-09-22T21:56:53.382Z,3.90
2022-09-22T21:59:21.734Z,3.78
2022-09-22T22:01:49.009Z,3.60
2022-09-22T22:04:17.662Z,3.67
2022-09-22T22:06:46.384Z,3.38
2022-09-22T22:09:17.643Z,4.50
2022-09-22T22:11:56.584Z,3.05
2022-09-22T22:14:26.065Z,3.17
2022-09-22T22:16:55.029Z,3.33
2022-09-22T22:19:25.728Z,3.08
2022-09-22T22:21:54.143Z,3.75
2022-09-22T22:24:23.188Z,3.35
2022-09-22T22:26:57.309Z,3.35
2022-09-22T22:29:27.286Z,3.55
2022-09-22T22:31:54.669Z,3.53
2022-09-22T22:34:25.651Z,3.17
2022-09-22T22:36:54.004Z,3.97
2022-09-22T22:39:21.460Z,4.40
2022-09-22T22:41:49.068Z,4.18
2022-09-22T22:44:17.956Z,3.47
2022-09-22T22:46:46.022Z,3.42
2022-09-22T22:49:13.490Z,3.42
2022-09-22T22:51:45.636Z,3.20
2022-09-22T22:54:14.518Z,3.33
2022-09-22T22:56:43.725Z,4.15
2022-09-22T22:59:12.438Z,3.65
2022-09-22T23:01:40.659Z,4.65
2022-09-22T23:04:10.422Z,4.45
2022-09-22T23:06:39.875Z,4.28
2022-09-22T23:09:10.284Z,4.22
2022-09-22T23:11:40.093Z,3.95
2022-09-22T23:14:11.603Z,4.50
2022-09-22T23:16:41.697Z,3.55
2022-09-22T23:19:12.576Z,4.40
2022-09-22T23:21:40.402Z,4.80
2022-09-22T23:24:08.454Z,4.45
2022-09-22T23:26:37.536Z,4.63
2022-09-22T23:29:05.339Z,3.72
2022-09-22T23:31:32.920Z,3.70
2022-09-22T23:34:00.096Z,4.80
2022-09-22T23:36:29.200Z,4.60
2022-09-22T23:39:04.363Z,3.00
2022-09-22T23:41:34.226Z,3.10
2022-09-22T23:44:02.939Z,3.58
2022-09-22T23:46:30.495Z,3.38
2022-09-22T23:49:00.228Z,3.83
2022-09-22T23:51:28.055Z,3.50
2022-09-22T23:53:55.551Z,3.03
2022-09-22T23:56:22.764Z,4.60
2022-09-22T23:58:51.617Z,3.95
